createdAt,value
2023-06-12T00:02:14.822Z,3.67
2023-06-12T00:04:46.041Z,3.83
2023-06-12T00:07:13.009Z,4.00
2023-06-12T00:09:39.967Z,3.05
2023-06-12T00:12:06.840Z,3.53
2023-06-12T00:14:33.415Z,3.20
2023-06-12T00:16:59.878Z,3.08
2023-06-12T00:19:28.525Z,3.58
2023-06-12T00:21:56.562Z,4.05
2023-06-12T00:24:23.349Z,3.72
2023-06-12T00:26:49.793Z,3.53
2023-06-12T00:29:16.529Z,3.67
2023-06-12T00:31:43.283Z,3.75
2023-06-12T00:34:09.855Z,3.65
2023-06-12T00:36:36.333Z,3.55
2023-06-12T00:39:07.277Z,3.78
2023-06-12T00:41:33.727Z,3.47
2023-06-12T00:44:00.734Z,3.72
2023-06-12T00:46:27.425Z,3.72
2023-06-12T00:48:54.085Z,4.15
2023-06-12T00:51:21.774Z,3.25
2023-06-12T00:53:48.398Z,3.83
2023-06-12T00:56:14.883Z,3.88
2023-06-12T00:58:42.074Z,3.15
2023-06-12T01:01:09.894Z,3.28
2023-06-12T01:03:38.031Z,3.60
2023-06-12T01:06:05.815Z,3.38
2023-06-12T01:08:43.699Z,3.90
2023-06-12T01:11:11.077Z,3.70
2023-06-12T01:13:37.864Z,3.85
2023-06-12T01:16:04.606Z,3.80
2023-06-12T01:18:33.581Z,3.90
2023-06-12T01:21:04.665Z,3.80
2023-06-12T01:23:32.580Z,3.45
2023-06-12T01:26:12.262Z,3.72
2023-06-12T01:28:38.726Z,4.10
2023-06-12T01:31:09.899Z,4.40
2023-06-12T01:33:39.251Z,4.03
2023-06-12T01:36:08.190Z,4.30
2023-06-12T01:38:35.619Z,4.30
2023-06-12T01:41:03.542Z,4.15
2023-06-12T01:43:30.102Z,4.03
2023-06-12T01:45:56.547Z,4.03
2023-06-12T01:48:24.177Z,4.43
2023-06-12T01:50:51.717Z,3.47
2023-06-12T01:53:18.369Z,4.60
2023-06-12T01:55:45.531Z,4.10
2023-06-12T01:58:18.214Z,3.53
2023-06-12T02:01:09.916Z,4.07
2023-06-12T02:03:40.664Z,4.90
2023-06-12T02:06:07.581Z,4.90
2023-06-12T02:08:34.086Z,4.40
2023-06-12T02:11:00.629Z,5.40
2023-06-12T02:13:27.098Z,4.60
2023-06-12T02:15:53.713Z,4.57
2023-06-12T02:18:20.429Z,4.13
2023-06-12T02:20:47.002Z,3.75
2023-06-12T02:23:13.441Z,3.92
2023-06-12T02:25:40.262Z,3.83
2023-06-12T02:28:07.000Z,4.18
2023-06-12T02:30:33.495Z,4.65
2023-06-12T02:33:00.365Z,4.10
2023-06-12T02:35:26.933Z,3.58
2023-06-12T02:37:54.252Z,4.07
2023-06-12T02:40:20.748Z,4.60
2023-06-12T02:42:47.410Z,3.70
2023-06-12T02:45:14.824Z,3.97
2023-06-12T02:47:42.218Z,3.78
2023-06-12T02:50:09.444Z,4.53
2023-06-12T02:52:45.579Z,4.47
2023-06-12T02:55:12.180Z,4.45
2023-06-12T02:57:38.666Z,4.40
2023-06-12T03:00:06.787Z,4.28
2023-06-12T03:02:43.829Z,4.25
2023-06-12T03:05:14.141Z,4.90
2023-06-12T03:07:41.403Z,4.65
2023-06-12T03:10:09.412Z,4.40
2023-06-12T03:12:36.127Z,3.97
2023-06-12T03:15:03.946Z,5.05
2023-06-12T03:17:30.658Z,5.30
2023-06-12T03:19:57.287Z,4.40
2023-06-12T03:22:24.299Z,4.43
2023-06-12T03:24:54.542Z,4.40
2023-06-12T03:27:22.038Z,4.72
2023-06-12T03:29:48.860Z,4.75
2023-06-12T03:32:15.785Z,5.10
2023-06-12T03:34:53.582Z,4.10
2023-06-12T03:37:20.968Z,4.80
2023-06-12T03:39:47.474Z,4.72
2023-06-12T03:42:14.371Z,4.15
2023-06-12T03:44:52.190Z,4.35
2023-06-12T03:47:18.897Z,4.07
2023-06-12T03:49:47.385Z,3.95
2023-06-12T03:52:15.493Z,4.43
2023-06-12T03:54:42.164Z,4.35
2023-06-12T03:57:08.688Z,4.45
2023-06-12T03:59:35.188Z,4.90
2023-06-12T04:02:02.505Z,4.05
2023-06-12T04:04:29.154Z,4.85
2023-06-12T04:06:56.308Z,4.68
2023-06-12T04:09:23.876Z,4.20
2023-06-12T04:11:51.174Z,4.57
2023-06-12T04:14:17.738Z,4.13
2023-06-12T04:16:44.367Z,4.18
2023-06-12T04:19:10.955Z,4.40
2023-06-12T04:21:37.594Z,4.47
2023-06-12T04:24:05.105Z,5.20
2023-06-12T04:26:32.698Z,4.85
2023-06-12T04:29:03.564Z,4.55
2023-06-12T04:31:30.503Z,4.60
2023-06-12T04:33:57.033Z,4.55
2023-06-12T04:36:23.901Z,4.07
2023-06-12T04:38:53.384Z,4.60
2023-06-12T04:41:21.801Z,4.40
2023-06-12T04:43:49.798Z,4.80
2023-06-12T04:46:18.979Z,4.65
2023-06-12T04:48:47.018Z,4.47
2023-06-12T04:51:14.603Z,4.78
2023-06-12T04:53:44.993Z,4.18
2023-06-12T04:56:14.052Z,4.53
2023-06-12T04:58:41.827Z,5.03
2023-06-12T05:01:08.786Z,3.95
2023-06-12T05:03:35.728Z,5.05
2023-06-12T05:06:02.245Z,4.80
2023-06-12T05:08:32.286Z,4.88
2023-06-12T05:11:00.503Z,4.97
2023-06-12T05:13:27.001Z,4.25
2023-06-12T05:15:53.510Z,5.40
2023-06-12T05:18:19.982Z,5.53
2023-06-12T05:20:46.559Z,5.25
2023-06-12T05:23:13.240Z,4.85
2023-06-12T05:25:40.601Z,5.72
2023-06-12T05:28:07.889Z,4.78
2023-06-12T05:30:34.772Z,6.03
2023-06-12T05:33:03.589Z,4.93
2023-06-12T05:35:31.810Z,5.57
2023-06-12T05:37:59.135Z,4.95
2023-06-12T05:40:26.576Z,4.88
2023-06-12T05:42:53.103Z,6.38
2023-06-12T05:45:20.525Z,5.05
2023-06-12T05:50:17.438Z,4.75
2023-06-12T05:52:44.797Z,6.43
2023-06-12T05:55:11.455Z,6.03
2023-06-12T05:57:38.224Z,5.65
2023-06-12T06:00:07.754Z,6.05
2023-06-12T06:02:43.844Z,5.05
2023-06-12T06:05:17.760Z,4.60
2023-06-12T06:07:44.680Z,5.20
2023-06-12T06:10:11.751Z,5.60
2023-06-12T06:12:38.294Z,5.28
2023-06-12T06:15:05.246Z,5.45
2023-06-12T06:17:32.242Z,5.95
2023-06-12T06:19:59.261Z,5.65
2023-06-12T06:22:26.168Z,6.13
2023-06-12T06:24:53.682Z,6.30
2023-06-12T06:27:20.261Z,5.80
2023-06-12T06:29:46.768Z,5.97
2023-06-12T06:32:13.298Z,5.30
2023-06-12T06:34:39.930Z,5.88
2023-06-12T06:37:09.242Z,5.53
2023-06-12T06:39:36.282Z,4.78
2023-06-12T06:42:04.085Z,5.25
2023-06-12T06:44:43.277Z,5.03
2023-06-12T06:47:11.983Z,4.75
2023-06-12T06:49:38.982Z,5.57
2023-06-12T06:52:06.779Z,5.90
2023-06-12T06:54:34.510Z,5.55
2023-06-12T06:57:03.954Z,4.93
2023-06-12T06:59:30.473Z,5.18
2023-06-12T07:01:57.064Z,5.43
2023-06-12T07:04:24.308Z,5.72
2023-06-12T07:06:51.486Z,5.43
2023-06-12T07:09:19.867Z,5.18
2023-06-12T07:11:46.933Z,5.50
2023-06-12T07:14:13.799Z,5.28
2023-06-12T07:16:40.438Z,5.60
2023-06-12T07:19:07.765Z,4.97
2023-06-12T07:21:34.407Z,5.53
2023-06-12T07:24:01.202Z,5.15
2023-06-12T07:26:30.125Z,5.15
2023-06-12T07:29:02.343Z,5.22
2023-06-12T07:31:30.791Z,4.70
2023-06-12T07:33:57.595Z,5.43
2023-06-12T07:36:24.614Z,4.78
2023-06-12T07:38:52.085Z,4.70
2023-06-12T07:41:19.078Z,4.90
2023-06-12T07:43:45.623Z,4.80
2023-06-12T07:46:12.131Z,4.72
2023-06-12T07:48:38.768Z,4.75
2023-06-12T07:51:05.581Z,5.05
2023-06-12T07:53:38.571Z,4.63
2023-06-12T07:56:09.764Z,4.60
2023-06-12T07:58:38.685Z,4.68
2023-06-12T08:01:07.673Z,4.78
2023-06-12T08:03:40.833Z,4.88
2023-06-12T08:06:12.719Z,4.65
2023-06-12T08:11:06.780Z,4.60
2023-06-12T08:13:33.727Z,4.50
2023-06-12T08:16:02.125Z,4.03
2023-06-12T08:18:28.861Z,4.50
2023-06-12T08:20:56.222Z,4.72
2023-06-12T08:23:23.592Z,5.00
2023-06-12T08:25:50.119Z,4.93
2023-06-12T08:28:16.667Z,4.20
2023-06-12T08:30:45.295Z,3.95
2023-06-12T08:33:17.216Z,3.85
2023-06-12T08:35:44.278Z,4.25
2023-06-12T08:38:11.180Z,4.70
2023-06-12T08:40:37.764Z,4.63
2023-06-12T08:43:05.305Z,4.10
2023-06-12T08:45:33.786Z,4.20
2023-06-12T08:48:00.967Z,4.10
2023-06-12T08:50:28.234Z,4.50
2023-06-12T08:52:56.782Z,3.97
2023-06-12T08:55:23.347Z,4.25
2023-06-12T08:57:50.190Z,4.82
2023-06-12T09:00:16.895Z,4.40
2023-06-12T09:02:45.395Z,4.65
2023-06-12T09:05:15.956Z,3.75
2023-06-12T09:07:44.626Z,4.65
2023-06-12T09:10:14.905Z,4.60
2023-06-12T09:12:44.857Z,4.57
2023-06-12T09:15:18.610Z,4.03
2023-06-12T09:17:49.095Z,3.83
2023-06-12T09:20:25.624Z,3.43
2023-06-12T09:22:59.897Z,3.95
2023-06-12T09:25:36.522Z,3.65
2023-06-12T09:28:06.553Z,3.72
2023-06-12T09:30:33.315Z,3.45
2023-06-12T09:33:04.390Z,3.92
2023-06-12T09:37:57.860Z,3.40
2023-06-12T09:40:24.792Z,3.53
2023-06-12T09:42:51.543Z,3.65
2023-06-12T09:45:22.080Z,3.70
2023-06-12T09:47:49.507Z,3.60
2023-06-12T09:50:16.912Z,3.78
2023-06-12T09:52:44.298Z,3.70
2023-06-12T09:55:13.183Z,3.78
2023-06-12T09:57:41.863Z,3.42
2023-06-12T10:00:12.776Z,3.40
2023-06-12T10:02:44.855Z,3.13
2023-06-12T10:05:38.633Z,3.42
2023-06-12T10:08:06.922Z,3.38
2023-06-12T10:10:36.707Z,3.55
2023-06-12T10:13:03.684Z,3.83
2023-06-12T10:15:30.694Z,3.53
2023-06-12T10:17:57.735Z,4.03
2023-06-12T10:20:24.781Z,3.40
2023-06-12T10:23:00.709Z,3.67
2023-06-12T10:25:27.412Z,3.42
2023-06-12T10:27:54.990Z,3.50
2023-06-12T10:30:21.505Z,3.30
2023-06-12T10:32:48.107Z,3.40
2023-06-12T10:35:28.557Z,3.70
2023-06-12T10:37:56.278Z,4.22
2023-06-12T10:40:37.504Z,3.95
2023-06-12T10:43:09.406Z,3.97
2023-06-12T10:45:39.010Z,3.65
2023-06-12T10:48:09.649Z,3.50
2023-06-12T10:50:44.799Z,3.90
2023-06-12T10:53:21.235Z,3.38
2023-06-12T10:55:47.808Z,3.67
2023-06-12T10:58:15.415Z,3.50
2023-06-12T11:00:49.440Z,3.50
2023-06-12T11:03:18.335Z,3.10
2023-06-12T11:05:48.946Z,3.30
2023-06-12T11:08:15.984Z,3.83
2023-06-12T11:10:42.659Z,3.33
2023-06-12T11:13:09.077Z,3.97
2023-06-12T11:15:45.837Z,3.42
2023-06-12T11:18:13.314Z,3.58
2023-06-12T11:20:40.407Z,3.38
2023-06-12T11:23:07.555Z,3.30
2023-06-12T11:25:35.138Z,2.63
2023-06-12T11:28:02.015Z,3.20
2023-06-12T11:30:33.314Z,2.65
2023-06-12T11:33:08.295Z,3.30
2023-06-12T11:35:39.393Z,2.90
2023-06-12T11:40:36.053Z,3.60
2023-06-12T11:43:02.849Z,3.53
2023-06-12T11:45:30.786Z,3.38
2023-06-12T11:50:28.358Z,3.33
2023-06-12T11:52:55.396Z,3.63
2023-06-12T11:57:52.612Z,3.17
2023-06-12T12:00:21.030Z,4.00
2023-06-12T12:02:50.515Z,2.90
2023-06-12T12:05:21.928Z,2.80
2023-06-12T12:07:57.466Z,3.05
2023-06-12T12:10:25.451Z,3.42
2023-06-12T12:12:53.039Z,3.30
2023-06-12T12:15:21.748Z,3.05
2023-06-12T12:17:51.645Z,3.70
2023-06-12T12:20:20.042Z,3.45
2023-06-12T12:22:47.741Z,3.35
2023-06-12T12:25:18.148Z,3.20
2023-06-12T12:27:45.360Z,3.08
2023-06-12T12:30:15.584Z,2.60
2023-06-12T12:32:43.815Z,3.00
2023-06-12T12:35:10.746Z,2.58
2023-06-12T12:37:37.364Z,2.92
2023-06-12T12:40:08.102Z,2.70
2023-06-12T12:42:34.641Z,3.22
2023-06-12T12:45:01.141Z,3.10
2023-06-12T12:47:27.629Z,3.20
2023-06-12T12:52:36.753Z,3.15
2023-06-12T12:55:07.962Z,2.67
2023-06-12T12:57:39.852Z,3.20
2023-06-12T13:00:08.376Z,3.15
2023-06-12T13:02:35.464Z,3.35
2023-06-12T13:05:02.248Z,3.22
2023-06-12T13:07:29.161Z,3.20
2023-06-12T13:09:55.735Z,3.60
2023-06-12T13:12:22.130Z,3.40
2023-06-12T13:14:48.579Z,3.42
2023-06-12T13:17:15.004Z,3.60
2023-06-12T13:19:41.772Z,3.85
2023-06-12T13:22:08.310Z,4.47
2023-06-12T13:24:34.998Z,3.50
2023-06-12T13:27:01.841Z,2.70
2023-06-12T13:29:28.325Z,3.13
2023-06-12T13:31:54.806Z,3.08
2023-06-12T13:34:21.246Z,3.10
2023-06-12T13:36:47.918Z,2.83
2023-06-12T13:39:14.526Z,2.90
2023-06-12T13:41:41.201Z,2.92
2023-06-12T13:44:07.860Z,3.28
2023-06-12T13:46:34.398Z,3.53
2023-06-12T13:49:03.924Z,3.08
2023-06-12T13:51:30.424Z,3.58
2023-06-12T13:53:57.287Z,3.10
2023-06-12T13:56:23.737Z,3.38
2023-06-12T13:58:50.299Z,3.50
2023-06-12T14:01:17.582Z,3.00
2023-06-12T14:03:44.592Z,2.72
2023-06-12T14:06:13.175Z,3.67
2023-06-12T14:08:41.672Z,3.08
2023-06-12T14:11:08.843Z,3.25
2023-06-12T14:13:36.017Z,3.10
2023-06-12T14:16:05.787Z,2.92
2023-06-12T14:18:32.210Z,3.22
2023-06-12T14:21:02.542Z,3.28
2023-06-12T14:23:29.518Z,2.78
2023-06-12T14:25:56.001Z,2.75
2023-06-12T14:28:22.405Z,2.75
2023-06-12T14:30:48.867Z,2.28
2023-06-12T14:33:15.446Z,2.70
2023-06-12T14:35:41.914Z,2.60
2023-06-12T14:38:08.484Z,3.30
2023-06-12T14:40:35.072Z,2.65
2023-06-12T14:43:01.499Z,3.25
2023-06-12T14:45:28.284Z,3.13
2023-06-12T14:47:54.885Z,3.03
2023-06-12T14:50:21.463Z,2.88
2023-06-12T14:52:47.863Z,3.05
2023-06-12T14:55:14.824Z,3.03
2023-06-12T14:57:42.958Z,2.90
2023-06-12T15:00:10.031Z,3.13
2023-06-12T15:02:36.591Z,2.90
2023-06-12T15:05:03.311Z,2.92
2023-06-12T15:07:29.803Z,2.97
2023-06-12T15:09:56.237Z,2.67
2023-06-12T15:12:22.657Z,2.50
2023-06-12T15:14:49.166Z,2.28
2023-06-12T15:17:15.772Z,2.30
2023-06-12T15:19:42.909Z,2.53
2023-06-12T15:22:09.877Z,2.47
2023-06-12T15:24:36.645Z,2.45
2023-06-12T15:27:03.271Z,2.25
2023-06-12T15:29:29.863Z,2.40
2023-06-12T15:31:56.460Z,2.20
2023-06-12T15:34:22.983Z,2.50
2023-06-12T15:36:49.547Z,2.08
2023-06-12T15:39:16.194Z,2.15
2023-06-12T15:41:43.046Z,1.90
2023-06-12T15:44:09.656Z,1.90
2023-06-12T15:46:36.189Z,2.33
2023-06-12T15:49:02.770Z,1.92
2023-06-12T15:51:29.394Z,2.00
2023-06-12T15:53:56.072Z,2.20
2023-06-12T15:56:22.683Z,2.70
2023-06-12T15:58:49.217Z,2.30
2023-06-12T16:01:16.161Z,2.30
2023-06-12T16:03:42.875Z,2.22
2023-06-12T16:06:10.368Z,2.40
2023-06-12T16:08:36.879Z,2.92
2023-06-12T16:11:03.913Z,2.40
2023-06-12T16:13:30.519Z,2.50
2023-06-12T16:15:57.132Z,2.80
2023-06-12T16:18:24.058Z,2.78
2023-06-12T16:20:50.606Z,3.22
2023-06-12T16:23:18.689Z,3.42
2023-06-12T16:25:45.577Z,2.83
2023-06-12T16:28:12.194Z,2.97
2023-06-12T16:30:38.678Z,2.85
2023-06-12T16:33:06.875Z,2.95
2023-06-12T16:35:33.632Z,3.33
2023-06-12T16:38:00.229Z,3.20
2023-06-12T16:40:27.522Z,3.22
2023-06-12T16:42:54.029Z,3.65
2023-06-12T16:45:20.458Z,3.42
2023-06-12T16:47:47.037Z,3.00
2023-06-12T16:50:13.770Z,3.33
2023-06-12T16:52:40.390Z,3.08
2023-06-12T16:55:07.412Z,3.53
2023-06-12T16:57:33.903Z,2.88
2023-06-12T17:00:00.499Z,3.45
2023-06-12T17:02:27.073Z,3.58
2023-06-12T17:04:53.598Z,2.95
2023-06-12T17:07:21.214Z,4.03
2023-06-12T17:09:47.778Z,3.40
2023-06-12T17:12:14.450Z,3.58
2023-06-12T17:14:43.399Z,4.00
2023-06-12T17:17:10.855Z,3.75
2023-06-12T17:19:38.237Z,4.15
2023-06-12T17:22:06.394Z,4.10
2023-06-12T17:24:33.049Z,4.40
2023-06-12T17:26:59.589Z,4.80
2023-06-12T17:29:26.078Z,4.82
2023-06-12T17:31:52.947Z,5.18
2023-06-12T17:34:19.512Z,4.95
2023-06-12T17:36:45.988Z,4.90
2023-06-12T17:39:12.654Z,4.38
2023-06-12T17:41:39.841Z,4.90
2023-06-12T17:44:06.552Z,4.32
2023-06-12T17:46:33.178Z,5.00
2023-06-12T17:49:00.121Z,5.13
2023-06-12T17:51:26.788Z,5.00
2023-06-12T17:53:54.095Z,5.07
2023-06-12T17:56:22.485Z,4.88
2023-06-12T17:58:49.093Z,4.88
2023-06-12T18:01:16.972Z,4.68
2023-06-12T18:03:43.952Z,4.45
2023-06-12T18:06:11.085Z,5.25
2023-06-12T18:08:38.299Z,4.78
2023-06-12T18:11:05.092Z,4.65
2023-06-12T18:13:32.586Z,4.28
2023-06-12T18:15:59.092Z,4.90
2023-06-12T18:18:25.589Z,4.22
2023-06-12T18:20:52.138Z,5.22
2023-06-12T18:23:18.605Z,4.80
2023-06-12T18:25:47.008Z,4.97
2023-06-12T18:28:16.032Z,4.95
2023-06-12T18:30:42.983Z,5.40
2023-06-12T18:33:09.757Z,4.78
2023-06-12T18:35:37.353Z,5.43
2023-06-12T18:38:05.528Z,5.07
2023-06-12T18:40:32.174Z,5.03
2023-06-12T18:42:59.980Z,4.57
2023-06-12T18:45:26.615Z,4.50
2023-06-12T18:47:53.833Z,4.75
2023-06-12T18:50:20.591Z,5.10
2023-06-12T18:52:47.070Z,4.70
2023-06-12T18:55:13.996Z,4.63
2023-06-12T18:57:40.838Z,5.20
2023-06-12T19:00:07.706Z,5.03
2023-06-12T19:02:34.272Z,5.05
2023-06-12T19:05:00.780Z,4.93
2023-06-12T19:07:28.834Z,5.00
2023-06-12T19:09:55.435Z,4.82
2023-06-12T19:12:22.032Z,4.85
2023-06-12T19:14:48.507Z,4.55
2023-06-12T19:17:15.260Z,4.82
2023-06-12T19:19:41.975Z,4.93
2023-06-12T19:22:08.437Z,4.30
2023-06-12T19:24:34.938Z,4.03
2023-06-12T19:27:01.647Z,4.63
2023-06-12T19:29:28.333Z,5.00
2023-06-12T19:31:54.926Z,4.47
2023-06-12T19:34:21.537Z,4.80
2023-06-12T19:36:48.222Z,4.68
2023-06-12T19:39:14.863Z,4.18
2023-06-12T19:41:41.539Z,4.85
2023-06-12T19:44:07.962Z,5.00
2023-06-12T19:46:34.496Z,4.88
2023-06-12T19:49:01.358Z,5.20
2023-06-12T19:51:28.171Z,5.15
2023-06-12T19:53:54.762Z,4.90
2023-06-12T19:56:21.308Z,4.85
2023-06-12T19:58:47.828Z,4.85
2023-06-12T20:01:15.069Z,4.95
2023-06-12T20:03:41.673Z,5.07
2023-06-12T20:06:09.358Z,4.93
2023-06-12T20:08:36.081Z,5.50
2023-06-12T20:11:02.577Z,4.88
2023-06-12T20:13:29.090Z,5.13
2023-06-12T20:15:55.835Z,5.47
2023-06-12T20:18:22.535Z,4.55
2023-06-12T20:20:51.742Z,5.00
2023-06-12T20:23:19.336Z,5.18
2023-06-12T20:25:46.118Z,5.60
2023-06-12T20:28:13.985Z,5.32
2023-06-12T20:30:40.513Z,5.18
2023-06-12T20:33:07.203Z,4.95
2023-06-12T20:35:34.023Z,5.03
2023-06-12T20:38:00.740Z,4.78
2023-06-12T20:40:27.254Z,4.57
2023-06-12T20:42:53.710Z,4.97
2023-06-12T20:45:20.264Z,4.75
2023-06-12T20:47:47.037Z,5.10
2023-06-12T20:50:13.836Z,4.80
2023-06-12T20:52:40.693Z,5.78
2023-06-12T20:55:07.468Z,4.25
2023-06-12T20:57:34.042Z,5.40
2023-06-12T21:00:00.736Z,4.30
2023-06-12T21:02:30.607Z,4.63
2023-06-12T21:04:57.745Z,4.32
2023-06-12T21:07:24.199Z,4.38
2023-06-12T21:09:50.749Z,4.40
2023-06-12T21:12:17.163Z,4.60
2023-06-12T21:14:43.559Z,3.97
2023-06-12T21:17:10.205Z,4.53
2023-06-12T21:19:36.684Z,4.00
2023-06-12T21:22:05.314Z,4.70
2023-06-12T21:24:32.010Z,4.13
2023-06-12T21:26:58.767Z,4.18
2023-06-12T21:29:25.556Z,4.00
2023-06-12T21:31:53.248Z,3.88
2023-06-12T21:34:19.851Z,4.28
2023-06-12T21:36:46.432Z,4.30
2023-06-12T21:39:13.615Z,4.20
2023-06-12T21:41:40.757Z,3.95
2023-06-12T21:44:07.372Z,3.88
2023-06-12T21:46:34.193Z,3.92
2023-06-12T21:49:00.793Z,3.67
2023-06-12T21:51:27.189Z,3.67
2023-06-12T21:53:53.787Z,3.83
2023-06-12T21:56:20.203Z,4.10
2023-06-12T21:58:46.634Z,3.95
2023-06-12T22:01:13.188Z,3.88
2023-06-12T22:03:39.712Z,3.92
2023-06-12T22:06:06.515Z,3.58
2023-06-12T22:08:32.957Z,3.65
2023-06-12T22:10:59.498Z,3.63
2023-06-12T22:13:26.420Z,3.83
2023-06-12T22:15:52.857Z,3.88
2023-06-12T22:18:19.557Z,4.00
2023-06-12T22:20:46.464Z,3.95
2023-06-12T22:23:14.509Z,3.80
2023-06-12T22:25:41.522Z,3.60
2023-06-12T22:28:09.151Z,3.65
2023-06-12T22:30:47.435Z,3.85
2023-06-12T22:33:18.426Z,3.75
2023-06-12T22:35:44.878Z,3.63
2023-06-12T22:38:11.344Z,3.70
2023-06-12T22:40:37.764Z,3.75
2023-06-12T22:43:04.582Z,3.65
2023-06-12T22:45:31.183Z,3.60
2023-06-12T22:47:58.253Z,3.40
2023-06-12T22:50:24.768Z,3.70
2023-06-12T22:52:51.245Z,3.63
2023-06-12T22:55:17.712Z,3.30
2023-06-12T22:57:44.179Z,3.53
2023-06-12T23:00:14.948Z,3.72
2023-06-12T23:02:41.517Z,3.63
2023-06-12T23:05:08.408Z,4.18
2023-06-12T23:07:36.703Z,3.47
2023-06-12T23:10:03.828Z,3.55
2023-06-12T23:12:30.309Z,4.28
2023-06-12T23:14:56.831Z,3.30
2023-06-12T23:17:24.146Z,3.30
2023-06-12T23:19:53.783Z,3.63
2023-06-12T23:22:21.503Z,3.10
2023-06-12T23:24:52.543Z,3.90
2023-06-12T23:27:21.871Z,3.63
2023-06-12T23:29:48.586Z,4.10
2023-06-12T23:32:15.093Z,3.75
2023-06-12T23:34:41.990Z,3.60
2023-06-12T23:37:08.738Z,4.07
2023-06-12T23:39:35.819Z,4.60
2023-06-12T23:42:02.793Z,3.88
2023-06-12T23:44:29.249Z,3.13
2023-06-12T23:46:55.917Z,3.50
2023-06-12T23:49:23.221Z,3.33
2023-06-12T23:51:49.725Z,3.95
2023-06-12T23:54:16.674Z,3.92
2023-06-12T23:56:43.230Z,3.58
2023-06-12T23:59:09.850Z,4.03
